createdAt,value
2022-09-24T00:00:25.353Z,24.71
2022-09-24T00:00:56.790Z,24.68
2022-09-24T00:01:28.362Z,24.61
2022-09-24T00:01:59.942Z,24.58
2022-09-24T00:02:31.482Z,24.50
2022-09-24T00:03:03.030Z,24.42
2022-09-24T00:03:34.497Z,24.34
2022-09-24T00:04:06.032Z,24.30
2022-09-24T00:04:37.560Z,24.31
2022-09-24T00:05:09.009Z,24.29
2022-09-24T00:05:40.478Z,24.31
2022-09-24T00:06:11.897Z,24.33
2022-09-24T00:06:43.353Z,24.36
2022-09-24T00:07:14.823Z,24.36
2022-09-24T00:07:46.249Z,24.38
2022-09-24T00:08:17.650Z,24.41
2022-09-24T00:08:49.100Z,24.44
2022-09-24T00:09:20.569Z,24.47
2022-09-24T00:09:51.988Z,24.50
2022-09-24T00:10:23.429Z,24.49
2022-09-24T00:10:54.827Z,24.50
2022-09-24T00:11:26.223Z,24.50
2022-09-24T00:11:57.815Z,24.52
2022-09-24T00:12:29.241Z,24.56
2022-09-24T00:13:00.627Z,24.53
2022-09-24T00:13:32.042Z,24.54
2022-09-24T00:14:03.719Z,24.52
2022-09-24T00:14:35.227Z,24.55
2022-09-24T00:15:06.618Z,24.57
2022-09-24T00:15:38.012Z,24.57
2022-09-24T00:16:09.418Z,24.57
2022-09-24T00:16:41.002Z,24.60
2022-09-24T00:17:12.520Z,24.58
2022-09-24T00:17:43.926Z,24.59
2022-09-24T00:18:15.285Z,24.58
2022-09-24T00:18:46.826Z,24.56
2022-09-24T00:19:18.223Z,24.57
2022-09-24T00:19:49.684Z,24.60
2022-09-24T00:20:21.190Z,24.59
2022-09-24T00:20:52.642Z,24.59
2022-09-24T00:21:24.191Z,24.63
2022-09-24T00:21:55.780Z,24.61
2022-09-24T00:22:27.522Z,24.65
2022-09-24T00:22:59.025Z,24.64
2022-09-24T00:23:30.502Z,24.62
2022-09-24T00:24:02.056Z,24.65
2022-09-24T00:24:33.675Z,24.61
2022-09-24T00:25:05.099Z,24.60
2022-09-24T00:25:36.538Z,24.53
2022-09-24T00:26:07.968Z,24.43
2022-09-24T00:26:39.459Z,24.36
2022-09-24T00:27:10.941Z,24.35
2022-09-24T00:27:42.455Z,24.37
2022-09-24T00:28:13.887Z,24.34
2022-09-24T00:28:45.325Z,24.36
2022-09-24T00:29:16.695Z,24.37
2022-09-24T00:29:48.086Z,24.43
2022-09-24T00:30:19.540Z,24.43
2022-09-24T00:30:51.075Z,24.48
2022-09-24T00:31:22.562Z,24.49
2022-09-24T00:31:54.088Z,24.51
2022-09-24T00:32:25.574Z,24.51
2022-09-24T00:32:57.047Z,24.53
2022-09-24T00:33:28.463Z,24.54
2022-09-24T00:33:59.890Z,24.54
2022-09-24T00:34:31.310Z,24.56
2022-09-24T00:35:02.798Z,24.59
2022-09-24T00:35:34.227Z,24.58
2022-09-24T00:36:05.791Z,24.58
2022-09-24T00:36:37.184Z,24.59
2022-09-24T00:37:08.593Z,24.58
2022-09-24T00:37:40.070Z,24.58
2022-09-24T00:38:11.488Z,24.60
2022-09-24T00:38:42.945Z,24.59
2022-09-24T00:39:14.356Z,24.58
2022-09-24T00:39:45.771Z,24.61
2022-09-24T00:40:17.284Z,24.61
2022-09-24T00:40:48.777Z,24.63
2022-09-24T00:41:20.322Z,24.65
2022-09-24T00:41:51.757Z,24.64
2022-09-24T00:42:23.159Z,24.63
2022-09-24T00:42:54.558Z,24.64
2022-09-24T00:43:26.006Z,24.67
2022-09-24T00:43:57.402Z,24.67
2022-09-24T00:44:28.824Z,24.65
2022-09-24T00:45:00.221Z,24.67
2022-09-24T00:45:31.672Z,24.69
2022-09-24T00:46:03.084Z,24.66
2022-09-24T00:46:34.776Z,24.66
2022-09-24T00:47:06.357Z,24.65
2022-09-24T00:47:37.875Z,24.64
2022-09-24T00:48:09.353Z,24.67
2022-09-24T00:48:40.790Z,24.68
2022-09-24T00:49:12.190Z,24.62
2022-09-24T00:49:43.679Z,24.61
2022-09-24T00:50:15.066Z,24.60
2022-09-24T00:50:46.538Z,24.60
2022-09-24T00:51:17.972Z,24.63
2022-09-24T00:51:49.398Z,24.65
2022-09-24T00:52:20.853Z,24.69
2022-09-24T00:52:52.267Z,24.72
2022-09-24T00:53:23.733Z,24.70
2022-09-24T00:53:55.356Z,24.69
2022-09-24T00:54:26.765Z,24.71
2022-09-24T00:54:58.227Z,24.70
2022-09-24T00:55:29.598Z,24.62
2022-09-24T00:56:01.015Z,24.55
2022-09-24T00:56:32.419Z,24.45
2022-09-24T00:57:03.993Z,24.43
2022-09-24T00:57:35.451Z,24.40
2022-09-24T00:58:06.880Z,24.38
2022-09-24T00:58:38.302Z,24.37
2022-09-24T00:59:09.722Z,24.37
2022-09-24T00:59:41.172Z,24.38
2022-09-24T01:00:12.602Z,24.41
2022-09-24T01:00:44.139Z,24.38
2022-09-24T01:01:15.737Z,24.42
2022-09-24T01:01:47.428Z,24.41
2022-09-24T01:02:19.044Z,24.42
2022-09-24T01:02:50.509Z,24.44
2022-09-24T01:03:21.974Z,24.44
2022-09-24T01:03:53.505Z,24.48
2022-09-24T01:04:24.962Z,24.46
2022-09-24T01:04:56.702Z,24.45
2022-09-24T01:05:28.234Z,24.47
2022-09-24T01:05:59.716Z,24.44
2022-09-24T01:06:31.138Z,24.48
2022-09-24T01:07:02.654Z,24.48
2022-09-24T01:07:34.113Z,24.48
2022-09-24T01:08:05.604Z,24.43
2022-09-24T01:08:36.974Z,24.43
2022-09-24T01:09:08.446Z,24.39
2022-09-24T01:09:39.921Z,24.35
2022-09-24T01:10:11.304Z,24.36
2022-09-24T01:10:42.755Z,24.36
2022-09-24T01:11:14.204Z,24.38
2022-09-24T01:11:45.710Z,24.40
2022-09-24T01:12:17.186Z,24.44
2022-09-24T01:12:48.695Z,24.41
2022-09-24T01:13:20.178Z,24.41
2022-09-24T01:13:51.616Z,24.43
2022-09-24T01:14:23.065Z,24.47
2022-09-24T01:14:54.564Z,24.46
2022-09-24T01:15:26.014Z,24.49
2022-09-24T01:15:57.479Z,24.49
2022-09-24T01:16:29.059Z,24.48
2022-09-24T01:17:00.535Z,24.50
2022-09-24T01:17:32.029Z,24.49
2022-09-24T01:18:03.502Z,24.52
2022-09-24T01:18:34.972Z,24.52
2022-09-24T01:19:06.327Z,24.53
2022-09-24T01:19:37.721Z,24.53
2022-09-24T01:20:09.253Z,24.55
2022-09-24T01:20:40.782Z,24.55
2022-09-24T01:21:12.314Z,24.53
2022-09-24T01:21:43.736Z,24.52
2022-09-24T01:22:15.205Z,24.52
2022-09-24T01:22:46.603Z,24.55
2022-09-24T01:23:18.048Z,24.54
2022-09-24T01:23:49.440Z,24.57
2022-09-24T01:24:20.895Z,24.57
2022-09-24T01:24:52.373Z,24.56
2022-09-24T01:25:23.820Z,24.56
2022-09-24T01:25:55.229Z,24.56
2022-09-24T01:26:26.635Z,24.56
2022-09-24T01:26:58.030Z,24.54
2022-09-24T01:27:29.470Z,24.56
2022-09-24T01:28:00.895Z,24.58
2022-09-24T01:28:32.395Z,24.59
2022-09-24T01:29:03.819Z,24.60
2022-09-24T01:29:35.257Z,24.57
2022-09-24T01:30:06.734Z,24.59
2022-09-24T01:30:38.352Z,24.62
2022-09-24T01:31:09.853Z,24.61
2022-09-24T01:31:41.386Z,24.63
2022-09-24T01:32:12.937Z,24.64
2022-09-24T01:32:44.395Z,24.65
2022-09-24T01:33:15.867Z,24.63
2022-09-24T01:33:47.285Z,24.65
2022-09-24T01:34:18.742Z,24.64
2022-09-24T01:34:50.137Z,24.65
2022-09-24T01:35:21.558Z,24.66
2022-09-24T01:35:52.988Z,24.65
2022-09-24T01:36:24.410Z,24.66
2022-09-24T01:36:55.813Z,24.66
2022-09-24T01:37:27.298Z,24.68
2022-09-24T01:37:58.687Z,24.67
2022-09-24T01:38:30.131Z,24.64
2022-09-24T01:39:01.573Z,24.63
2022-09-24T01:39:32.990Z,24.63
2022-09-24T01:40:04.441Z,24.61
2022-09-24T01:40:35.949Z,24.63
2022-09-24T01:41:07.455Z,24.62
2022-09-24T01:41:38.868Z,24.65
2022-09-24T01:42:10.349Z,24.66
2022-09-24T01:42:41.755Z,24.68
2022-09-24T01:43:13.208Z,24.64
2022-09-24T01:43:44.647Z,24.63
2022-09-24T01:44:16.026Z,24.58
2022-09-24T01:44:47.497Z,24.58
2022-09-24T01:45:18.851Z,24.57
2022-09-24T01:45:50.272Z,24.54
2022-09-24T01:46:21.760Z,24.52
2022-09-24T01:46:53.276Z,24.51
2022-09-24T01:47:24.728Z,24.52
2022-09-24T01:47:56.158Z,24.50
2022-09-24T01:48:27.680Z,24.51
2022-09-24T01:48:59.094Z,24.49
2022-09-24T01:49:30.562Z,24.46
2022-09-24T01:50:01.948Z,24.45
2022-09-24T01:50:33.379Z,24.44
2022-09-24T01:51:04.864Z,24.46
2022-09-24T01:51:36.282Z,24.46
2022-09-24T01:52:07.696Z,24.43
2022-09-24T01:52:39.131Z,24.44
2022-09-24T01:53:10.504Z,24.43
2022-09-24T01:53:41.950Z,24.41
2022-09-24T01:54:13.373Z,24.38
2022-09-24T01:54:44.792Z,24.38
2022-09-24T01:55:16.236Z,24.39
2022-09-24T01:55:47.683Z,24.38
2022-09-24T01:56:19.128Z,24.39
2022-09-24T01:56:50.561Z,24.41
2022-09-24T01:57:22.000Z,24.38
2022-09-24T01:57:53.454Z,24.37
2022-09-24T01:58:24.864Z,24.40
2022-09-24T01:58:56.355Z,24.39
2022-09-24T01:59:27.739Z,24.39
2022-09-24T01:59:59.187Z,24.37
2022-09-24T02:00:30.668Z,24.37
2022-09-24T02:01:02.197Z,24.39
2022-09-24T02:01:33.815Z,24.39
2022-09-24T02:02:05.344Z,24.36
2022-09-24T02:02:36.826Z,24.39
2022-09-24T02:03:08.334Z,24.40
2022-09-24T02:03:39.748Z,24.37
2022-09-24T02:04:11.187Z,24.37
2022-09-24T02:04:42.605Z,24.40
2022-09-24T02:05:14.011Z,24.38
2022-09-24T02:05:45.416Z,24.37
2022-09-24T02:06:16.858Z,24.36
2022-09-24T02:06:48.305Z,24.37
2022-09-24T02:07:19.727Z,24.37
2022-09-24T02:07:51.156Z,24.37
2022-09-24T02:08:22.601Z,24.37
2022-09-24T02:08:54.006Z,24.38
2022-09-24T02:09:25.436Z,24.39
2022-09-24T02:09:56.926Z,24.37
2022-09-24T02:10:28.338Z,24.36
2022-09-24T02:10:59.831Z,24.37
2022-09-24T02:11:31.216Z,24.36
2022-09-24T02:12:02.670Z,24.35
2022-09-24T02:12:34.146Z,24.36
2022-09-24T02:13:05.531Z,24.35
2022-09-24T02:13:36.904Z,24.35
2022-09-24T02:14:08.417Z,24.36
2022-09-24T02:14:39.912Z,24.35
2022-09-24T02:15:11.347Z,24.36
2022-09-24T02:15:42.803Z,24.36
2022-09-24T02:16:14.277Z,24.36
2022-09-24T02:16:45.707Z,24.35
2022-09-24T02:17:17.158Z,24.36
2022-09-24T02:17:48.654Z,24.35
2022-09-24T02:18:20.027Z,24.36
2022-09-24T02:18:51.432Z,24.36
2022-09-24T02:19:22.863Z,24.35
2022-09-24T02:19:54.325Z,24.35
2022-09-24T02:20:25.749Z,24.35
2022-09-24T02:20:57.157Z,24.35
2022-09-24T02:21:28.576Z,24.35
2022-09-24T02:21:59.963Z,24.35
2022-09-24T02:22:31.377Z,24.34
2022-09-24T02:23:02.852Z,24.34
2022-09-24T02:23:34.281Z,24.34
2022-09-24T02:24:05.662Z,24.33
2022-09-24T02:24:37.069Z,24.32
2022-09-24T02:25:08.477Z,24.33
2022-09-24T02:25:39.905Z,24.32
2022-09-24T02:26:11.320Z,24.32
2022-09-24T02:26:42.764Z,24.32
2022-09-24T02:27:14.206Z,24.32
2022-09-24T02:27:45.793Z,24.31
2022-09-24T02:28:17.216Z,24.31
2022-09-24T02:28:48.686Z,24.31
2022-09-24T02:29:20.104Z,24.32
2022-09-24T02:29:51.517Z,24.30
2022-09-24T02:30:22.960Z,24.30
2022-09-24T02:30:54.373Z,24.30
2022-09-24T02:31:25.886Z,24.29
2022-09-24T02:31:57.399Z,24.30
2022-09-24T02:32:28.819Z,24.30
2022-09-24T02:33:00.276Z,24.30
2022-09-24T02:33:31.704Z,24.29
2022-09-24T02:34:03.122Z,24.28
2022-09-24T02:34:34.546Z,24.28
2022-09-24T02:35:06.022Z,24.27
2022-09-24T02:35:37.413Z,24.28
2022-09-24T02:36:08.805Z,24.30
2022-09-24T02:36:40.306Z,24.29
2022-09-24T02:37:11.733Z,24.28
2022-09-24T02:37:43.285Z,24.27
2022-09-24T02:38:14.741Z,24.27
2022-09-24T02:38:46.232Z,24.28
2022-09-24T02:39:17.672Z,24.28
2022-09-24T02:39:49.094Z,24.28
2022-09-24T02:40:20.624Z,24.28
2022-09-24T02:40:52.041Z,24.28
2022-09-24T02:41:23.472Z,24.27
2022-09-24T02:41:54.878Z,24.29
2022-09-24T02:42:26.285Z,24.28
2022-09-24T02:42:57.696Z,24.28
2022-09-24T02:43:29.170Z,24.27
2022-09-24T02:44:00.726Z,24.29
2022-09-24T02:44:32.133Z,24.28
2022-09-24T02:45:03.677Z,24.29
2022-09-24T02:45:35.085Z,24.28
2022-09-24T02:46:06.526Z,24.28
2022-09-24T02:46:38.016Z,24.27
2022-09-24T02:47:09.481Z,24.28
2022-09-24T02:47:40.906Z,24.29
2022-09-24T02:48:12.318Z,24.29
2022-09-24T02:48:43.825Z,24.28
2022-09-24T02:49:15.206Z,24.28
2022-09-24T02:49:46.594Z,24.29
2022-09-24T02:50:17.999Z,24.26
2022-09-24T02:50:49.380Z,24.28
2022-09-24T02:51:20.818Z,24.27
2022-09-24T02:51:52.298Z,24.29
2022-09-24T02:52:23.686Z,24.29
2022-09-24T02:52:55.088Z,24.28
2022-09-24T02:53:26.485Z,24.28
2022-09-24T02:53:57.958Z,24.28
2022-09-24T02:54:29.345Z,24.28
2022-09-24T02:55:00.768Z,24.29
2022-09-24T02:55:32.219Z,24.28
2022-09-24T02:56:03.663Z,24.27
2022-09-24T02:56:35.095Z,24.28
2022-09-24T02:57:06.515Z,24.29
2022-09-24T02:57:37.905Z,24.28
2022-09-24T02:58:09.319Z,24.29
2022-09-24T02:58:40.744Z,24.28
2022-09-24T02:59:12.194Z,24.29
2022-09-24T02:59:43.678Z,24.29
2022-09-24T03:00:15.070Z,24.30
2022-09-24T03:00:46.534Z,24.29
2022-09-24T03:01:18.005Z,24.29
2022-09-24T03:01:49.548Z,24.28
2022-09-24T03:02:21.080Z,24.28
2022-09-24T03:02:52.687Z,24.29
2022-09-24T03:03:24.161Z,24.29
2022-09-24T03:03:55.658Z,24.30
2022-09-24T03:04:27.152Z,24.28
2022-09-24T03:04:58.552Z,24.29
2022-09-24T03:05:30.025Z,24.29
2022-09-24T03:06:01.452Z,24.31
2022-09-24T03:06:32.890Z,24.29
2022-09-24T03:07:04.289Z,24.30
2022-09-24T03:07:35.777Z,24.29
2022-09-24T03:08:07.212Z,24.29
2022-09-24T03:08:38.590Z,24.30
2022-09-24T03:09:10.053Z,24.29
2022-09-24T03:09:41.501Z,24.30
2022-09-24T03:10:12.921Z,24.29
2022-09-24T03:10:44.361Z,24.29
2022-09-24T03:11:18.710Z,24.28
2022-09-24T03:11:50.438Z,24.29
2022-09-24T03:12:21.856Z,24.30
2022-09-24T03:12:53.328Z,24.28
2022-09-24T03:13:24.801Z,24.28
2022-09-24T03:13:56.302Z,24.29
2022-09-24T03:14:27.717Z,24.29
2022-09-24T03:14:59.137Z,24.29
2022-09-24T03:15:30.553Z,24.29
2022-09-24T03:16:02.081Z,24.29
2022-09-24T03:16:33.726Z,24.30
2022-09-24T03:17:05.204Z,24.28
2022-09-24T03:17:36.621Z,24.28
2022-09-24T03:18:08.039Z,24.28
2022-09-24T03:18:39.506Z,24.28
2022-09-24T03:19:10.916Z,24.28
2022-09-24T03:19:42.380Z,24.27
2022-09-24T03:20:13.774Z,24.28
2022-09-24T03:20:45.181Z,24.28
2022-09-24T03:21:16.579Z,24.27
2022-09-24T03:21:48.069Z,24.29
2022-09-24T03:22:19.464Z,24.29
2022-09-24T03:22:50.882Z,24.30
2022-09-24T03:23:22.314Z,24.29
2022-09-24T03:23:53.725Z,24.28
2022-09-24T03:24:25.260Z,24.29
2022-09-24T03:24:56.781Z,24.28
2022-09-24T03:25:28.155Z,24.26
2022-09-24T03:25:59.567Z,24.28
2022-09-24T03:26:30.998Z,24.28
2022-09-24T03:27:02.586Z,24.29
2022-09-24T03:27:34.042Z,24.27
2022-09-24T03:28:05.427Z,24.28
2022-09-24T03:28:36.898Z,24.27
2022-09-24T03:29:08.332Z,24.28
2022-09-24T03:29:39.756Z,24.28
2022-09-24T03:30:11.224Z,24.27
2022-09-24T03:30:42.603Z,24.26
2022-09-24T03:31:14.094Z,24.27
2022-09-24T03:31:45.645Z,24.27
2022-09-24T03:32:17.159Z,24.26
2022-09-24T03:32:48.587Z,24.26
2022-09-24T03:33:19.988Z,24.26
2022-09-24T03:33:51.400Z,24.27
2022-09-24T03:34:22.852Z,24.27
2022-09-24T03:34:54.350Z,24.27
2022-09-24T03:35:25.761Z,24.26
2022-09-24T03:35:57.217Z,24.25
2022-09-24T03:36:28.782Z,24.27
2022-09-24T03:37:00.299Z,24.26
2022-09-24T03:37:31.768Z,24.27
2022-09-24T03:38:03.137Z,24.27
2022-09-24T03:38:34.589Z,24.27
2022-09-24T03:39:06.051Z,24.29
2022-09-24T03:39:37.540Z,24.28
2022-09-24T03:40:08.976Z,24.26
2022-09-24T03:40:40.477Z,24.27
2022-09-24T03:41:11.938Z,24.26
2022-09-24T03:41:43.441Z,24.26
2022-09-24T03:42:14.821Z,24.25
2022-09-24T03:42:46.250Z,24.26
2022-09-24T03:43:17.684Z,24.26
2022-09-24T03:43:49.089Z,24.25
2022-09-24T03:44:20.535Z,24.27
2022-09-24T03:44:51.917Z,24.27
2022-09-24T03:45:23.356Z,24.28
2022-09-24T03:45:54.809Z,24.26
2022-09-24T03:46:26.257Z,24.26
2022-09-24T03:46:57.728Z,24.26
2022-09-24T03:47:29.160Z,24.27
2022-09-24T03:48:00.627Z,24.27
2022-09-24T03:48:32.127Z,24.27
2022-09-24T03:49:03.604Z,24.26
2022-09-24T03:49:35.124Z,24.26
2022-09-24T03:50:06.575Z,24.27
2022-09-24T03:50:38.035Z,24.26
2022-09-24T03:51:09.442Z,24.26
2022-09-24T03:51:40.862Z,24.27
2022-09-24T03:52:12.249Z,24.26
2022-09-24T03:52:43.669Z,24.26
2022-09-24T03:53:15.099Z,24.26
2022-09-24T03:53:46.499Z,24.25
2022-09-24T03:54:17.865Z,24.24
2022-09-24T03:54:49.388Z,24.25
2022-09-24T03:55:20.841Z,24.24
2022-09-24T03:55:52.318Z,24.25
2022-09-24T03:56:23.742Z,24.25
2022-09-24T03:56:55.206Z,24.26
2022-09-24T03:57:26.624Z,24.25
2022-09-24T03:57:58.107Z,24.24
2022-09-24T03:58:29.581Z,24.25
2022-09-24T03:59:01.000Z,24.24
2022-09-24T03:59:32.472Z,24.23
2022-09-24T04:00:03.887Z,24.26
2022-09-24T04:00:38.927Z,24.25
2022-09-24T04:01:12.421Z,24.25
2022-09-24T04:01:43.895Z,24.24
2022-09-24T04:02:15.384Z,24.24
2022-09-24T04:02:46.836Z,24.25
2022-09-24T04:03:18.367Z,24.25
2022-09-24T04:03:49.804Z,24.25
2022-09-24T04:04:21.254Z,24.25
2022-09-24T04:04:52.695Z,24.25
2022-09-24T04:05:24.172Z,24.22
2022-09-24T04:05:55.553Z,24.24
2022-09-24T04:06:27.043Z,24.24
2022-09-24T04:06:58.500Z,24.23
2022-09-24T04:07:29.996Z,24.23
2022-09-24T04:08:01.395Z,24.25
2022-09-24T04:08:32.798Z,24.25
2022-09-24T04:09:04.258Z,24.24
2022-09-24T04:09:35.694Z,24.23
2022-09-24T04:10:07.083Z,24.22
2022-09-24T04:10:38.666Z,24.22
2022-09-24T04:11:10.116Z,24.22
2022-09-24T04:11:41.546Z,24.22
2022-09-24T04:12:12.921Z,24.24
2022-09-24T04:12:44.334Z,24.23
2022-09-24T04:13:15.756Z,24.24
2022-09-24T04:13:47.195Z,24.24
2022-09-24T04:14:18.625Z,24.23
2022-09-24T04:14:50.119Z,24.24
2022-09-24T04:15:21.517Z,24.25
2022-09-24T04:15:53.023Z,24.25
2022-09-24T04:16:24.580Z,24.24
2022-09-24T04:16:56.006Z,24.24
2022-09-24T04:17:27.482Z,24.23
2022-09-24T04:17:58.984Z,24.25
2022-09-24T04:18:30.483Z,24.24
2022-09-24T04:19:01.898Z,24.25
2022-09-24T04:19:33.328Z,24.25
2022-09-24T04:20:04.715Z,24.25
2022-09-24T04:20:36.117Z,24.24
2022-09-24T04:21:07.623Z,24.25
2022-09-24T04:21:39.047Z,24.26
2022-09-24T04:22:10.505Z,24.24
2022-09-24T04:22:41.924Z,24.24
2022-09-24T04:23:13.396Z,24.24
2022-09-24T04:23:44.838Z,24.25
2022-09-24T04:24:16.235Z,24.25
2022-09-24T04:24:47.698Z,24.24
2022-09-24T04:25:19.103Z,24.26
2022-09-24T04:25:50.487Z,24.25
2022-09-24T04:26:22.024Z,24.23
2022-09-24T04:26:53.444Z,24.27
2022-09-24T04:27:24.886Z,24.27
2022-09-24T04:27:56.279Z,24.28
2022-09-24T04:28:27.665Z,24.28
2022-09-24T04:28:59.112Z,24.27
2022-09-24T04:29:30.511Z,24.27
2022-09-24T04:30:01.947Z,24.25
2022-09-24T04:30:33.380Z,24.24
2022-09-24T04:31:04.871Z,24.25
2022-09-24T04:31:36.524Z,24.26
2022-09-24T04:32:08.018Z,24.25
2022-09-24T04:32:39.464Z,24.25
2022-09-24T04:33:10.848Z,24.25
2022-09-24T04:33:42.347Z,24.27
2022-09-24T04:34:13.748Z,24.25
2022-09-24T04:34:45.128Z,24.25
2022-09-24T04:35:16.642Z,24.25
2022-09-24T04:35:48.057Z,24.26
2022-09-24T04:36:19.533Z,24.26
2022-09-24T04:36:50.936Z,24.27
2022-09-24T04:37:22.392Z,24.26
2022-09-24T04:37:53.802Z,24.25
2022-09-24T04:38:25.213Z,24.25
2022-09-24T04:38:56.674Z,24.24
2022-09-24T04:39:28.078Z,24.25
2022-09-24T04:39:59.497Z,24.26
2022-09-24T04:40:31.101Z,24.26
2022-09-24T04:41:02.646Z,24.27
2022-09-24T04:41:34.086Z,24.26
2022-09-24T04:42:05.483Z,24.25
2022-09-24T04:42:36.889Z,24.24
2022-09-24T04:43:08.281Z,24.23
2022-09-24T04:43:39.776Z,24.24
2022-09-24T04:44:11.259Z,24.24
2022-09-24T04:44:42.751Z,24.24
2022-09-24T04:45:14.281Z,24.25
2022-09-24T04:45:45.837Z,24.23
2022-09-24T04:46:17.385Z,24.24
2022-09-24T04:46:48.988Z,24.25
2022-09-24T04:47:20.410Z,24.25
2022-09-24T04:47:51.807Z,24.24
2022-09-24T04:48:23.237Z,24.24
2022-09-24T04:48:54.659Z,24.26
2022-09-24T04:49:26.213Z,24.25
2022-09-24T04:49:57.583Z,24.23
2022-09-24T04:50:29.145Z,24.25
2022-09-24T04:51:00.627Z,24.23
2022-09-24T04:51:32.026Z,24.23
2022-09-24T04:52:03.626Z,24.21
2022-09-24T04:52:35.227Z,24.21
2022-09-24T04:53:06.694Z,24.22
2022-09-24T04:53:38.116Z,24.23
2022-09-24T04:54:09.557Z,24.23
2022-09-24T04:54:41.045Z,24.22
2022-09-24T04:55:12.634Z,24.24
2022-09-24T04:55:44.067Z,24.23
2022-09-24T04:56:15.478Z,24.22
2022-09-24T04:56:46.928Z,24.24
2022-09-24T04:57:18.348Z,24.22
2022-09-24T04:57:49.743Z,24.23
2022-09-24T04:58:21.174Z,24.23
2022-09-24T04:58:52.699Z,24.23
2022-09-24T04:59:24.115Z,24.24
2022-09-24T04:59:55.541Z,24.22
2022-09-24T05:00:26.962Z,24.24
2022-09-24T05:00:58.367Z,24.23
2022-09-24T05:01:29.910Z,24.24
2022-09-24T05:02:04.773Z,24.24
2022-09-24T05:02:40.232Z,24.24
2022-09-24T05:03:11.901Z,24.24
2022-09-24T05:03:43.408Z,24.23
2022-09-24T05:04:14.879Z,24.22
2022-09-24T05:04:46.302Z,24.24
2022-09-24T05:05:17.829Z,24.25
2022-09-24T05:05:49.284Z,24.24
2022-09-24T05:06:20.685Z,24.24
2022-09-24T05:06:52.096Z,24.25
2022-09-24T05:07:23.543Z,24.24
2022-09-24T05:07:54.952Z,24.24
2022-09-24T05:08:26.362Z,24.23
2022-09-24T05:08:57.769Z,24.23
2022-09-24T05:09:29.197Z,24.23
2022-09-24T05:10:00.626Z,24.25
2022-09-24T05:10:32.216Z,24.23
2022-09-24T05:11:03.737Z,24.25
2022-09-24T05:11:35.158Z,24.24
2022-09-24T05:12:06.583Z,24.24
2022-09-24T05:12:38.099Z,24.25
2022-09-24T05:13:09.555Z,24.26
2022-09-24T05:13:40.949Z,24.23
2022-09-24T05:14:12.435Z,24.26
2022-09-24T05:14:43.843Z,24.24
2022-09-24T05:15:15.272Z,24.24
2022-09-24T05:15:46.829Z,24.24
2022-09-24T05:16:18.401Z,24.25
2022-09-24T05:16:49.882Z,24.25
2022-09-24T05:17:21.279Z,24.26
2022-09-24T05:17:52.764Z,24.25
2022-09-24T05:18:24.182Z,24.25
2022-09-24T05:18:55.614Z,24.25
2022-09-24T05:19:27.015Z,24.26
2022-09-24T05:19:58.492Z,24.24
2022-09-24T05:20:29.922Z,24.25
2022-09-24T05:21:01.323Z,24.24
2022-09-24T05:21:32.851Z,24.25
2022-09-24T05:22:04.222Z,24.25
2022-09-24T05:22:35.720Z,24.24
2022-09-24T05:23:07.111Z,24.29
2022-09-24T05:23:38.545Z,24.31
2022-09-24T05:24:10.002Z,24.29
2022-09-24T05:24:41.464Z,24.26
2022-09-24T05:25:12.910Z,24.25
2022-09-24T05:25:44.377Z,24.24
2022-09-24T05:26:15.861Z,24.24
2022-09-24T05:26:47.317Z,24.23
2022-09-24T05:27:18.707Z,24.22
2022-09-24T05:27:50.077Z,24.22
2022-09-24T05:28:21.466Z,24.22
2022-09-24T05:28:52.859Z,24.23
2022-09-24T05:29:24.253Z,24.25
2022-09-24T05:29:55.675Z,24.24
2022-09-24T05:30:27.166Z,24.22
2022-09-24T05:30:58.598Z,24.23
2022-09-24T05:31:30.099Z,24.23
2022-09-24T05:32:01.600Z,24.24
2022-09-24T05:32:33.001Z,24.25
2022-09-24T05:33:04.439Z,24.23
2022-09-24T05:33:35.903Z,24.22
2022-09-24T05:34:07.350Z,24.23
2022-09-24T05:34:38.769Z,24.22
2022-09-24T05:35:10.195Z,24.24
2022-09-24T05:35:41.588Z,24.23
2022-09-24T05:36:12.963Z,24.25
2022-09-24T05:36:44.411Z,24.25
2022-09-24T05:37:15.859Z,24.22
2022-09-24T05:37:47.314Z,24.24
2022-09-24T05:38:18.772Z,24.23
2022-09-24T05:38:50.196Z,24.23
2022-09-24T05:39:21.626Z,24.22
2022-09-24T05:39:53.015Z,24.23
2022-09-24T05:40:24.554Z,24.22
2022-09-24T05:40:56.037Z,24.22
2022-09-24T05:41:27.555Z,24.21
2022-09-24T05:41:59.031Z,24.22
2022-09-24T05:42:30.507Z,24.22
2022-09-24T05:43:02.025Z,24.22
2022-09-24T05:43:33.435Z,24.22
2022-09-24T05:44:04.957Z,24.22
2022-09-24T05:44:36.386Z,24.22
2022-09-24T05:45:07.817Z,24.25
2022-09-24T05:45:39.211Z,24.23
2022-09-24T05:46:10.637Z,24.23
2022-09-24T05:46:42.091Z,24.24
2022-09-24T05:47:13.548Z,24.23
2022-09-24T05:47:45.307Z,24.23
2022-09-24T05:48:16.735Z,24.22
2022-09-24T05:48:48.178Z,24.23
2022-09-24T05:49:19.617Z,24.22
2022-09-24T05:49:51.085Z,24.22
2022-09-24T05:50:22.484Z,24.22
2022-09-24T05:50:53.922Z,24.24
2022-09-24T05:51:25.326Z,24.23
2022-09-24T05:51:56.779Z,24.22
2022-09-24T05:52:28.176Z,24.23
2022-09-24T05:52:59.644Z,24.22
2022-09-24T05:53:31.089Z,24.21
2022-09-24T05:54:02.620Z,24.22
2022-09-24T05:54:34.053Z,24.23
2022-09-24T05:55:05.495Z,24.23
2022-09-24T05:55:36.935Z,24.23
2022-09-24T05:56:08.443Z,24.23
2022-09-24T05:56:39.877Z,24.23
2022-09-24T05:57:11.253Z,24.23
2022-09-24T05:57:42.767Z,24.24
2022-09-24T05:58:14.198Z,24.23
2022-09-24T05:58:45.564Z,24.23
2022-09-24T05:59:16.972Z,24.23
2022-09-24T05:59:48.379Z,24.23
2022-09-24T06:00:19.815Z,24.23
2022-09-24T06:00:51.303Z,24.22
2022-09-24T06:01:22.915Z,24.23
2022-09-24T06:01:54.571Z,24.22
2022-09-24T06:02:26.060Z,24.23
2022-09-24T06:02:57.529Z,24.24
2022-09-24T06:03:28.976Z,24.24
2022-09-24T06:04:02.562Z,24.22
2022-09-24T06:04:37.638Z,24.23
2022-09-24T06:05:09.124Z,24.23
2022-09-24T06:05:40.552Z,24.24
2022-09-24T06:06:12.039Z,24.24
2022-09-24T06:06:43.552Z,24.24
2022-09-24T06:07:15.018Z,24.24
2022-09-24T06:07:46.427Z,24.24
2022-09-24T06:08:17.854Z,24.23
2022-09-24T06:08:49.287Z,24.23
2022-09-24T06:09:20.694Z,24.24
2022-09-24T06:09:52.113Z,24.25
2022-09-24T06:10:23.493Z,24.23
2022-09-24T06:10:54.906Z,24.24
2022-09-24T06:11:26.316Z,24.24
2022-09-24T06:11:57.768Z,24.24
2022-09-24T06:12:29.139Z,24.24
2022-09-24T06:13:00.576Z,24.24
2022-09-24T06:13:31.988Z,24.22
2022-09-24T06:14:03.553Z,24.25
2022-09-24T06:14:34.952Z,24.24
2022-09-24T06:15:06.433Z,24.26
2022-09-24T06:15:37.886Z,24.24
2022-09-24T06:16:09.384Z,24.25
2022-09-24T06:16:40.929Z,24.26
2022-09-24T06:17:12.524Z,24.25
2022-09-24T06:17:43.966Z,24.25
2022-09-24T06:18:15.382Z,24.26
2022-09-24T06:18:46.738Z,24.25
2022-09-24T06:19:18.130Z,24.26
2022-09-24T06:19:49.543Z,24.25
2022-09-24T06:20:20.965Z,24.25
2022-09-24T06:20:52.364Z,24.23
2022-09-24T06:21:23.830Z,24.26
2022-09-24T06:21:55.271Z,24.25
2022-09-24T06:22:28.739Z,24.24
2022-09-24T06:23:00.536Z,24.23
2022-09-24T06:23:31.963Z,24.24
2022-09-24T06:24:06.266Z,24.23
2022-09-24T06:24:37.674Z,24.25
2022-09-24T06:25:09.078Z,24.25
2022-09-24T06:25:40.499Z,24.25
2022-09-24T06:26:11.987Z,24.25
2022-09-24T06:26:43.420Z,24.25
2022-09-24T06:27:14.884Z,24.25
2022-09-24T06:27:46.515Z,24.25
2022-09-24T06:28:18.043Z,24.25
2022-09-24T06:28:49.481Z,24.25
2022-09-24T06:29:20.941Z,24.25
2022-09-24T06:29:52.366Z,24.26
2022-09-24T06:30:23.803Z,24.25
2022-09-24T06:30:55.386Z,24.25
2022-09-24T06:31:26.896Z,24.27
2022-09-24T06:31:58.372Z,24.26
2022-09-24T06:32:29.749Z,24.24
2022-09-24T06:33:01.295Z,24.26
2022-09-24T06:33:32.697Z,24.25
2022-09-24T06:34:04.123Z,24.25
2022-09-24T06:34:35.574Z,24.26
2022-09-24T06:35:07.055Z,24.25
2022-09-24T06:35:38.441Z,24.26
2022-09-24T06:36:09.840Z,24.25
2022-09-24T06:36:41.237Z,24.24
2022-09-24T06:37:12.671Z,24.24
2022-09-24T06:37:44.120Z,24.25
2022-09-24T06:38:15.596Z,24.25
2022-09-24T06:38:47.011Z,24.25
2022-09-24T06:39:18.432Z,24.25
2022-09-24T06:39:49.830Z,24.26
2022-09-24T06:40:21.355Z,24.27
2022-09-24T06:40:52.938Z,24.26
2022-09-24T06:41:24.387Z,24.26
2022-09-24T06:41:55.823Z,24.24
2022-09-24T06:42:27.238Z,24.24
2022-09-24T06:42:58.706Z,24.26
2022-09-24T06:43:30.225Z,24.25
2022-09-24T06:44:01.684Z,24.26
2022-09-24T06:44:33.231Z,24.23
2022-09-24T06:45:04.625Z,24.24
2022-09-24T06:45:36.003Z,24.24